sensor_id;sensor_type;location;lat;lon;timestamp;P1;durP1;ratioP1;P2;durP2;ratioP2
6941;SDS011;3510;43.200;27.920;2023-03-23T00:02:03;9.53;;;4.80;;
6941;SDS011;3510;43.200;27.920;2023-03-23T00:04:29;5.97;;;4.33;;
6941;SDS011;3510;43.200;27.920;2023-03-23T00:06:56;5.73;;;4.10;;
6941;SDS011;3510;43.200;27.920;2023-03-23T00:09:26;6.67;;;5.27;;
6941;SDS011;3510;43.200;27.920;2023-03-23T00:11:53;7.60;;;4.10;;
6941;SDS011;3510;43.200;27.920;2023-03-23T00:14:22;4.87;;;4.40;;
6941;SDS011;3510;43.200;27.920;2023-03-23T00:16:51;4.93;;;4.53;;
6941;SDS011;3510;43.200;27.920;2023-03-23T00:19:17;4.90;;;3.90;;
6941;SDS011;3510;43.200;27.920;2023-03-23T00:21:45;3.67;;;3.37;;
6941;SDS011;3510;43.200;27.920;2023-03-23T00:24:13;3.57;;;3.27;;
6941;SDS011;3510;43.200;27.920;2023-03-23T00:26:42;5.07;;;4.27;;
6941;SDS011;3510;43.200;27.920;2023-03-23T00:29:11;12.47;;;4.40;;
6941;SDS011;3510;43.200;27.920;2023-03-23T00:31:41;7.83;;;5.73;;
6941;SDS011;3510;43.200;27.920;2023-03-23T00:34:13;6.83;;;4.57;;
6941;SDS011;3510;43.200;27.920;2023-03-23T00:36:44;8.40;;;5.00;;
6941;SDS011;3510;43.200;27.920;2023-03-23T00:39:12;4.83;;;4.43;;
6941;SDS011;3510;43.200;27.920;2023-03-23T00:41:41;5.70;;;3.90;;
6941;SDS011;3510;43.200;27.920;2023-03-23T00:44:08;4.80;;;3.93;;
6941;SDS011;3510;43.200;27.920;2023-03-23T00:46:35;5.13;;;3.83;;
6941;SDS011;3510;43.200;27.920;2023-03-23T00:49:09;4.97;;;4.57;;
6941;SDS011;3510;43.200;27.920;2023-03-23T00:51:38;4.57;;;4.10;;
6941;SDS011;3510;43.200;27.920;2023-03-23T00:54:06;5.23;;;4.30;;
6941;SDS011;3510;43.200;27.920;2023-03-23T00:56:34;4.87;;;4.47;;
6941;SDS011;3510;43.200;27.920;2023-03-23T00:59:01;5.10;;;4.27;;
6941;SDS011;3510;43.200;27.920;2023-03-23T01:01:28;5.00;;;4.37;;
6941;SDS011;3510;43.200;27.920;2023-03-23T01:03:55;4.53;;;4.23;;
6941;SDS011;3510;43.200;27.920;2023-03-23T01:06:25;8.10;;;5.00;;
6941;SDS011;3510;43.200;27.920;2023-03-23T01:08:54;6.43;;;5.83;;
6941;SDS011;3510;43.200;27.920;2023-03-23T01:11:21;6.40;;;4.40;;
6941;SDS011;3510;43.200;27.920;2023-03-23T01:13:50;4.97;;;4.57;;
6941;SDS011;3510;43.200;27.920;2023-03-23T01:16:17;4.73;;;4.23;;
6941;SDS011;3510;43.200;27.920;2023-03-23T01:18:44;4.43;;;4.03;;
6941;SDS011;3510;43.200;27.920;2023-03-23T01:21:11;6.80;;;4.60;;
6941;SDS011;3510;43.200;27.920;2023-03-23T01:23:40;5.93;;;5.43;;
6941;SDS011;3510;43.200;27.920;2023-03-23T01:26:09;7.67;;;6.07;;
6941;SDS011;3510;43.200;27.920;2023-03-23T01:28:37;10.50;;;5.57;;
6941;SDS011;3510;43.200;27.920;2023-03-23T01:31:05;6.43;;;5.77;;
6941;SDS011;3510;43.200;27.920;2023-03-23T01:33:34;5.93;;;5.43;;
6941;SDS011;3510;43.200;27.920;2023-03-23T01:36:02;6.27;;;5.77;;
6941;SDS011;3510;43.200;27.920;2023-03-23T01:38:30;6.20;;;5.00;;
6941;SDS011;3510;43.200;27.920;2023-03-23T01:40:57;8.15;;;7.30;;
6941;SDS011;3510;43.200;27.920;2023-03-23T01:43:25;8.70;;;7.97;;
6941;SDS011;3510;43.200;27.920;2023-03-23T01:45:52;9.35;;;7.90;;
6941;SDS011;3510;43.200;27.920;2023-03-23T01:48:20;7.33;;;6.67;;
6941;SDS011;3510;43.200;27.920;2023-03-23T01:50:52;5.93;;;5.43;;
6941;SDS011;3510;43.200;27.920;2023-03-23T01:53:28;6.00;;;4.70;;
6941;SDS011;3510;43.200;27.920;2023-03-23T04:03:57;14.47;;;13.00;;
6941;SDS011;3510;43.200;27.920;2023-03-23T04:06:27;14.43;;;10.40;;
6941;SDS011;3510;43.200;27.920;2023-03-23T04:08:55;14.57;;;10.27;;
6941;SDS011;3510;43.200;27.920;2023-03-23T04:11:24;15.07;;;11.43;;
6941;SDS011;3510;43.200;27.920;2023-03-23T04:13:53;22.60;;;15.77;;
6941;SDS011;3510;43.200;27.920;2023-03-23T04:16:21;14.30;;;10.17;;
6941;SDS011;3510;43.200;27.920;2023-03-23T04:18:48;15.37;;;11.50;;
6941;SDS011;3510;43.200;27.920;2023-03-23T04:21:16;16.03;;;11.77;;
6941;SDS011;3510;43.200;27.920;2023-03-23T04:23:43;12.40;;;10.27;;
6941;SDS011;3510;43.200;27.920;2023-03-23T04:26:10;16.03;;;11.97;;
6941;SDS011;3510;43.200;27.920;2023-03-23T04:28:51;17.43;;;11.93;;
6941;SDS011;3510;43.200;27.920;2023-03-23T04:58:16;19.45;;;14.57;;
6941;SDS011;3510;43.200;27.920;2023-03-23T05:00:44;21.15;;;15.13;;
6941;SDS011;3510;43.200;27.920;2023-03-23T05:03:15;18.45;;;14.02;;
6941;SDS011;3510;43.200;27.920;2023-03-23T05:05:42;19.15;;;14.13;;
6941;SDS011;3510;43.200;27.920;2023-03-23T05:19:08;13.27;;;11.23;;
6941;SDS011;3510;43.200;27.920;2023-03-23T05:21:48;12.43;;;9.90;;
6941;SDS011;3510;43.200;27.920;2023-03-23T05:24:14;12.17;;;9.57;;
6941;SDS011;3510;43.200;27.920;2023-03-23T05:26:44;15.17;;;10.10;;
6941;SDS011;3510;43.200;27.920;2023-03-23T05:29:17;14.87;;;13.30;;
6941;SDS011;3510;43.200;27.920;2023-03-23T05:34:22;15.70;;;11.60;;
6941;SDS011;3510;43.200;27.920;2023-03-23T05:36:52;18.60;;;14.33;;
6941;SDS011;3510;43.200;27.920;2023-03-23T05:39:20;13.97;;;9.33;;
6941;SDS011;3510;43.200;27.920;2023-03-23T05:41:52;13.67;;;11.10;;
6941;SDS011;3510;43.200;27.920;2023-03-23T05:44:23;13.43;;;10.10;;
6941;SDS011;3510;43.200;27.920;2023-03-23T05:46:51;11.43;;;9.90;;
6941;SDS011;3510;43.200;27.920;2023-03-23T05:49:19;15.33;;;11.03;;
6941;SDS011;3510;43.200;27.920;2023-03-23T05:51:51;18.83;;;13.90;;
6941;SDS011;3510;43.200;27.920;2023-03-23T05:54:18;14.33;;;11.03;;
6941;SDS011;3510;43.200;27.920;2023-03-23T05:56:46;21.63;;;17.50;;
6941;SDS011;3510;43.200;27.920;2023-03-23T05:59:15;28.53;;;23.83;;
6941;SDS011;3510;43.200;27.920;2023-03-23T06:01:42;15.03;;;12.03;;
6941;SDS011;3510;43.200;27.920;2023-03-23T06:04:10;17.37;;;13.63;;
6941;SDS011;3510;43.200;27.920;2023-03-23T06:06:38;16.40;;;11.20;;
6941;SDS011;3510;43.200;27.920;2023-03-23T06:09:09;13.83;;;11.20;;
6941;SDS011;3510;43.200;27.920;2023-03-23T06:11:37;14.10;;;11.57;;
6941;SDS011;3510;43.200;27.920;2023-03-23T06:14:18;15.47;;;11.90;;
6941;SDS011;3510;43.200;27.920;2023-03-23T06:16:46;11.40;;;8.73;;
6941;SDS011;3510;43.200;27.920;2023-03-23T06:19:14;8.30;;;7.50;;
6941;SDS011;3510;43.200;27.920;2023-03-23T06:21:41;9.23;;;8.33;;
6941;SDS011;3510;43.200;27.920;2023-03-23T06:29:26;10.33;;;7.90;;
6941;SDS011;3510;43.200;27.920;2023-03-23T06:32:00;9.27;;;8.37;;
6941;SDS011;3510;43.200;27.920;2023-03-23T06:34:29;10.13;;;9.13;;
6941;SDS011;3510;43.200;27.920;2023-03-23T06:36:59;10.47;;;8.63;;
6941;SDS011;3510;43.200;27.920;2023-03-23T06:39:27;12.57;;;11.30;;
6941;SDS011;3510;43.200;27.920;2023-03-23T06:41:56;10.33;;;8.70;;
6941;SDS011;3510;43.200;27.920;2023-03-23T06:44:27;11.03;;;9.03;;
6941;SDS011;3510;43.200;27.920;2023-03-23T06:46:54;9.93;;;8.93;;
6941;SDS011;3510;43.200;27.920;2023-03-23T06:49:21;10.23;;;9.20;;
6941;SDS011;3510;43.200;27.920;2023-03-23T06:51:48;11.33;;;8.77;;
6941;SDS011;3510;43.200;27.920;2023-03-23T06:54:15;10.80;;;9.73;;
6941;SDS011;3510;43.200;27.920;2023-03-23T06:56:41;9.37;;;8.37;;
6941;SDS011;3510;43.200;27.920;2023-03-23T06:59:08;9.63;;;8.60;;
6941;SDS011;3510;43.200;27.920;2023-03-23T07:01:36;9.30;;;8.30;;
6941;SDS011;3510;43.200;27.920;2023-03-23T07:04:04;13.93;;;9.80;;
6941;SDS011;3510;43.200;27.920;2023-03-23T07:06:31;14.40;;;11.40;;
6941;SDS011;3510;43.200;27.920;2023-03-23T07:08:58;11.00;;;9.37;;
6941;SDS011;3510;43.200;27.920;2023-03-23T07:11:25;10.50;;;9.40;;
6941;SDS011;3510;43.200;27.920;2023-03-23T07:13:52;10.13;;;9.17;;
6941;SDS011;3510;43.200;27.920;2023-03-23T07:16:19;9.60;;;8.20;;
6941;SDS011;3510;43.200;27.920;2023-03-23T07:18:47;10.10;;;8.83;;
6941;SDS011;3510;43.200;27.920;2023-03-23T07:21:14;10.17;;;8.63;;
6941;SDS011;3510;43.200;27.920;2023-03-23T07:23:41;9.13;;;8.00;;
6941;SDS011;3510;43.200;27.920;2023-03-23T07:26:07;11.33;;;10.13;;
6941;SDS011;3510;43.200;27.920;2023-03-23T07:28:35;11.30;;;10.13;;
6941;SDS011;3510;43.200;27.920;2023-03-23T07:31:02;14.00;;;11.57;;
6941;SDS011;3510;43.200;27.920;2023-03-23T07:33:29;10.10;;;9.20;;
6941;SDS011;3510;43.200;27.920;2023-03-23T07:35:59;15.57;;;11.90;;
6941;SDS011;3510;43.200;27.920;2023-03-23T07:38:27;14.50;;;11.60;;
6941;SDS011;3510;43.200;27.920;2023-03-23T07:40:55;18.90;;;11.87;;
6941;SDS011;3510;43.200;27.920;2023-03-23T07:43:23;16.33;;;13.47;;
6941;SDS011;3510;43.200;27.920;2023-03-23T07:45:50;12.70;;;11.33;;
6941;SDS011;3510;43.200;27.920;2023-03-23T07:48:16;12.20;;;10.30;;
6941;SDS011;3510;43.200;27.920;2023-03-23T07:50:43;14.07;;;12.57;;
6941;SDS011;3510;43.200;27.920;2023-03-23T07:53:12;13.03;;;11.60;;
6941;SDS011;3510;43.200;27.920;2023-03-23T07:55:40;12.17;;;9.67;;
6941;SDS011;3510;43.200;27.920;2023-03-23T07:58:06;12.30;;;9.47;;
6941;SDS011;3510;43.200;27.920;2023-03-23T08:00:33;13.63;;;10.03;;
6941;SDS011;3510;43.200;27.920;2023-03-23T08:03:00;10.43;;;9.43;;
6941;SDS011;3510;43.200;27.920;2023-03-23T08:05:28;10.60;;;9.37;;
6941;SDS011;3510;43.200;27.920;2023-03-23T08:07:54;11.47;;;9.40;;
6941;SDS011;3510;43.200;27.920;2023-03-23T08:10:23;10.17;;;9.17;;
6941;SDS011;3510;43.200;27.920;2023-03-23T08:12:52;10.07;;;9.07;;
6941;SDS011;3510;43.200;27.920;2023-03-23T08:15:21;10.43;;;8.77;;
6941;SDS011;3510;43.200;27.920;2023-03-23T08:17:48;9.50;;;8.70;;
6941;SDS011;3510;43.200;27.920;2023-03-23T08:20:15;8.97;;;8.17;;
6941;SDS011;3510;43.200;27.920;2023-03-23T08:22:44;13.80;;;11.20;;
6941;SDS011;3510;43.200;27.920;2023-03-23T08:25:15;11.70;;;10.17;;
6941;SDS011;3510;43.200;27.920;2023-03-23T08:27:45;11.63;;;8.70;;
6941;SDS011;3510;43.200;27.920;2023-03-23T08:30:13;9.73;;;8.87;;
6941;SDS011;3510;43.200;27.920;2023-03-23T08:32:41;33.40;;;11.50;;
6941;SDS011;3510;43.200;27.920;2023-03-23T08:35:10;11.97;;;10.73;;
6941;SDS011;3510;43.200;27.920;2023-03-23T08:37:38;67.33;;;17.73;;
6941;SDS011;3510;43.200;27.920;2023-03-23T08:40:07;9.03;;;8.17;;
6941;SDS011;3510;43.200;27.920;2023-03-23T08:42:35;28.77;;;11.00;;
6941;SDS011;3510;43.200;27.920;2023-03-23T08:45:04;17.20;;;9.50;;
6941;SDS011;3510;43.200;27.920;2023-03-23T08:47:32;11.33;;;9.10;;
6941;SDS011;3510;43.200;27.920;2023-03-23T08:50:00;29.90;;;11.67;;
6941;SDS011;3510;43.200;27.920;2023-03-23T08:52:27;70.47;;;13.93;;
6941;SDS011;3510;43.200;27.920;2023-03-23T08:54:54;9.70;;;8.73;;
6941;SDS011;3510;43.200;27.920;2023-03-23T08:57:22;11.27;;;9.40;;
6941;SDS011;3510;43.200;27.920;2023-03-23T08:59:49;171.07;;;21.60;;
6941;SDS011;3510;43.200;27.920;2023-03-23T09:02:17;15.80;;;9.27;;
6941;SDS011;3510;43.200;27.920;2023-03-23T09:04:44;11.07;;;9.40;;
6941;SDS011;3510;43.200;27.920;2023-03-23T09:07:11;17.20;;;10.07;;
6941;SDS011;3510;43.200;27.920;2023-03-23T09:09:40;15.27;;;10.17;;
6941;SDS011;3510;43.200;27.920;2023-03-23T09:12:07;14.90;;;11.03;;
6941;SDS011;3510;43.200;27.920;2023-03-23T09:24:28;11.60;;;9.70;;
6941;SDS011;3510;43.200;27.920;2023-03-23T09:26:55;13.35;;;10.90;;
6941;SDS011;3510;43.200;27.920;2023-03-23T09:29:23;14.77;;;11.10;;
6941;SDS011;3510;43.200;27.920;2023-03-23T09:31:50;21.87;;;10.33;;
6941;SDS011;3510;43.200;27.920;2023-03-23T09:34:17;13.07;;;10.60;;
6941;SDS011;3510;43.200;27.920;2023-03-23T09:36:45;13.50;;;10.82;;
6941;SDS011;3510;43.200;27.920;2023-03-23T09:39:12;19.00;;;12.23;;
6941;SDS011;3510;43.200;27.920;2023-03-23T09:41:48;16.95;;;12.23;;
6941;SDS011;3510;43.200;27.920;2023-03-23T09:44:30;15.77;;;12.43;;
6941;SDS011;3510;43.200;27.920;2023-03-23T09:47:04;21.02;;;12.68;;
6941;SDS011;3510;43.200;27.920;2023-03-23T09:49:38;21.35;;;11.60;;
6941;SDS011;3510;43.200;27.920;2023-03-23T09:52:10;26.73;;;12.82;;
6941;SDS011;3510;43.200;27.920;2023-03-23T09:54:40;23.25;;;12.25;;
6941;SDS011;3510;43.200;27.920;2023-03-23T09:57:11;27.58;;;12.82;;
6941;SDS011;3510;43.200;27.920;2023-03-23T09:59:44;23.83;;;12.25;;
6941;SDS011;3510;43.200;27.920;2023-03-23T10:02:16;22.80;;;11.82;;
6941;SDS011;3510;43.200;27.920;2023-03-23T10:04:46;15.48;;;10.38;;
6941;SDS011;3510;43.200;27.920;2023-03-23T10:07:18;13.20;;;10.25;;
6941;SDS011;3510;43.200;27.920;2023-03-23T10:09:48;26.88;;;11.45;;
6941;SDS011;3510;43.200;27.920;2023-03-23T10:12:21;12.77;;;9.40;;
6941;SDS011;3510;43.200;27.920;2023-03-23T10:15:01;24.92;;;11.43;;
6941;SDS011;3510;43.200;27.920;2023-03-23T10:17:37;19.70;;;12.00;;
6941;SDS011;3510;43.200;27.920;2023-03-23T10:20:15;19.40;;;11.60;;
6941;SDS011;3510;43.200;27.920;2023-03-23T10:22:51;24.00;;;11.00;;
6941;SDS011;3510;43.200;27.920;2023-03-23T10:25:26;15.38;;;10.38;;
6941;SDS011;3510;43.200;27.920;2023-03-23T10:27:59;25.50;;;11.55;;
6941;SDS011;3510;43.200;27.920;2023-03-23T10:30:31;22.17;;;10.90;;
6941;SDS011;3510;43.200;27.920;2023-03-23T10:33:03;25.20;;;11.27;;
6941;SDS011;3510;43.200;27.920;2023-03-23T10:35:38;20.05;;;11.30;;
6941;SDS011;3510;43.200;27.920;2023-03-23T10:38:13;16.40;;;11.07;;
6941;SDS011;3510;43.200;27.920;2023-03-23T10:40:45;20.70;;;11.68;;
6941;SDS011;3510;43.200;27.920;2023-03-23T10:43:17;19.60;;;10.65;;
6941;SDS011;3510;43.200;27.920;2023-03-23T10:45:46;12.68;;;10.13;;
6941;SDS011;3510;43.200;27.920;2023-03-23T10:48:21;29.02;;;10.43;;
6941;SDS011;3510;43.200;27.920;2023-03-23T10:50:54;13.43;;;9.68;;
6941;SDS011;3510;43.200;27.920;2023-03-23T10:53:26;21.85;;;10.73;;
6941;SDS011;3510;43.200;27.920;2023-03-23T10:55:58;26.42;;;10.45;;
6941;SDS011;3510;43.200;27.920;2023-03-23T10:58:26;17.23;;;11.63;;
6941;SDS011;3510;43.200;27.920;2023-03-23T11:00:57;16.52;;;10.85;;
6941;SDS011;3510;43.200;27.920;2023-03-23T11:03:28;11.05;;;9.82;;
6941;SDS011;3510;43.200;27.920;2023-03-23T11:06:05;14.32;;;9.60;;
6941;SDS011;3510;43.200;27.920;2023-03-23T11:08:38;19.52;;;11.00;;
6941;SDS011;3510;43.200;27.920;2023-03-23T11:11:16;15.35;;;9.85;;
6941;SDS011;3510;43.200;27.920;2023-03-23T11:13:49;15.80;;;9.70;;
6941;SDS011;3510;43.200;27.920;2023-03-23T11:16:25;17.55;;;10.30;;
6941;SDS011;3510;43.200;27.920;2023-03-23T11:19:13;24.70;;;10.68;;
6941;SDS011;3510;43.200;27.920;2023-03-23T11:21:45;18.35;;;9.68;;
6941;SDS011;3510;43.200;27.920;2023-03-23T11:24:15;14.88;;;11.43;;
6941;SDS011;3510;43.200;27.920;2023-03-23T11:26:42;16.90;;;10.40;;
6941;SDS011;3510;43.200;27.920;2023-03-23T11:29:12;11.82;;;10.60;;
6941;SDS011;3510;43.200;27.920;2023-03-23T11:31:44;16.65;;;11.05;;
6941;SDS011;3510;43.200;27.920;2023-03-23T11:34:14;34.70;;;22.73;;
6941;SDS011;3510;43.200;27.920;2023-03-23T11:36:47;38.55;;;19.58;;
6941;SDS011;3510;43.200;27.920;2023-03-23T11:39:21;25.30;;;10.90;;
6941;SDS011;3510;43.200;27.920;2023-03-23T11:41:49;21.80;;;10.27;;
6941;SDS011;3510;43.200;27.920;2023-03-23T11:44:16;12.53;;;9.20;;
6941;SDS011;3510;43.200;27.920;2023-03-23T11:46:46;18.40;;;8.70;;
6941;SDS011;3510;43.200;27.920;2023-03-23T11:49:25;17.25;;;9.40;;
6941;SDS011;3510;43.200;27.920;2023-03-23T11:52:01;22.23;;;9.85;;
6941;SDS011;3510;43.200;27.920;2023-03-23T11:54:42;12.68;;;8.88;;
6941;SDS011;3510;43.200;27.920;2023-03-23T11:57:13;17.50;;;8.68;;
6941;SDS011;3510;43.200;27.920;2023-03-23T11:59:41;14.02;;;8.25;;
6941;SDS011;3510;43.200;27.920;2023-03-23T12:05:10;12.82;;;7.65;;
6941;SDS011;3510;43.200;27.920;2023-03-23T12:16:10;20.10;;;9.53;;
6941;SDS011;3510;43.200;27.920;2023-03-23T12:21:31;20.80;;;9.83;;
6941;SDS011;3510;43.200;27.920;2023-03-23T12:24:23;14.60;;;10.30;;
6941;SDS011;3510;43.200;27.920;2023-03-23T12:27:03;19.92;;;9.45;;
6941;SDS011;3510;43.200;27.920;2023-03-23T12:42:35;8.70;;;7.90;;
6941;SDS011;3510;43.200;27.920;2023-03-23T12:45:13;12.00;;;7.97;;
6941;SDS011;3510;43.200;27.920;2023-03-23T12:47:49;13.35;;;8.35;;
6941;SDS011;3510;43.200;27.920;2023-03-23T12:50:24;12.73;;;7.70;;
6941;SDS011;3510;43.200;27.920;2023-03-23T12:52:57;12.60;;;7.65;;
6941;SDS011;3510;43.200;27.920;2023-03-23T12:58:19;7.20;;;5.55;;
6941;SDS011;3510;43.200;27.920;2023-03-23T13:00:56;6.68;;;5.68;;
6941;SDS011;3510;43.200;27.920;2023-03-23T13:03:33;14.73;;;6.57;;
6941;SDS011;3510;43.200;27.920;2023-03-23T13:06:07;12.30;;;6.50;;
6941;SDS011;3510;43.200;27.920;2023-03-23T13:08:54;15.67;;;7.33;;
6941;SDS011;3510;43.200;27.920;2023-03-23T13:11:47;10.15;;;6.40;;
6941;SDS011;3510;43.200;27.920;2023-03-23T13:17:48;13.05;;;7.00;;
6941;SDS011;3510;43.200;27.920;2023-03-23T13:23:12;9.73;;;5.60;;
6941;SDS011;3510;43.200;27.920;2023-03-23T13:25:46;6.50;;;4.78;;
6941;SDS011;3510;43.200;27.920;2023-03-23T13:28:17;5.32;;;4.93;;
6941;SDS011;3510;43.200;27.920;2023-03-23T13:30:57;6.00;;;5.43;;
6941;SDS011;3510;43.200;27.920;2023-03-23T13:33:28;7.03;;;6.32;;
6941;SDS011;3510;43.200;27.920;2023-03-23T13:36:08;5.85;;;5.40;;
6941;SDS011;3510;43.200;27.920;2023-03-23T13:38:38;5.83;;;5.30;;
6941;SDS011;3510;43.200;27.920;2023-03-23T13:41:11;6.75;;;6.15;;
6941;SDS011;3510;43.200;27.920;2023-03-23T13:43:41;6.88;;;6.22;;
6941;SDS011;3510;43.200;27.920;2023-03-23T13:46:13;6.57;;;5.97;;
6941;SDS011;3510;43.200;27.920;2023-03-23T13:49:03;8.57;;;7.75;;
6941;SDS011;3510;43.200;27.920;2023-03-23T13:51:51;8.10;;;6.90;;
6941;SDS011;3510;43.200;27.920;2023-03-23T13:54:29;6.67;;;6.07;;
6941;SDS011;3510;43.200;27.920;2023-03-23T13:56:58;9.88;;;7.03;;
6941;SDS011;3510;43.200;27.920;2023-03-23T13:59:31;13.20;;;10.73;;
6941;SDS011;3510;43.200;27.920;2023-03-23T14:04:53;13.57;;;12.00;;
6941;SDS011;3510;43.200;27.920;2023-03-23T14:07:20;14.87;;;11.23;;
6941;SDS011;3510;43.200;27.920;2023-03-23T14:09:49;8.20;;;7.50;;
6941;SDS011;3510;43.200;27.920;2023-03-23T14:12:27;8.68;;;7.85;;
6941;SDS011;3510;43.200;27.920;2023-03-23T14:14:56;7.63;;;6.82;;
6941;SDS011;3510;43.200;27.920;2023-03-23T14:17:29;9.68;;;8.73;;
6941;SDS011;3510;43.200;27.920;2023-03-23T14:19:59;9.57;;;7.13;;
6941;SDS011;3510;43.200;27.920;2023-03-23T14:22:31;8.85;;;7.80;;
6941;SDS011;3510;43.200;27.920;2023-03-23T14:25:02;7.63;;;6.80;;
6941;SDS011;3510;43.200;27.920;2023-03-23T14:27:52;12.95;;;8.73;;
6941;SDS011;3510;43.200;27.920;2023-03-23T14:30:22;9.43;;;7.63;;
6941;SDS011;3510;43.200;27.920;2023-03-23T14:32:51;9.73;;;7.97;;
6941;SDS011;3510;43.200;27.920;2023-03-23T14:35:34;8.27;;;7.53;;
6941;SDS011;3510;43.200;27.920;2023-03-23T14:38:04;8.38;;;7.63;;
6941;SDS011;3510;43.200;27.920;2023-03-23T14:40:37;8.88;;;7.45;;
6941;SDS011;3510;43.200;27.920;2023-03-23T14:43:08;9.27;;;7.38;;
6941;SDS011;3510;43.200;27.920;2023-03-23T14:45:40;6.95;;;6.32;;
6941;SDS011;3510;43.200;27.920;2023-03-23T14:48:13;6.95;;;6.43;;
6941;SDS011;3510;43.200;27.920;2023-03-23T14:50:49;10.75;;;8.10;;
6941;SDS011;3510;43.200;27.920;2023-03-23T14:53:18;8.15;;;7.38;;
6941;SDS011;3510;43.200;27.920;2023-03-23T14:55:49;9.67;;;8.50;;
6941;SDS011;3510;43.200;27.920;2023-03-23T14:58:17;8.48;;;7.03;;
6941;SDS011;3510;43.200;27.920;2023-03-23T15:00:47;9.63;;;7.60;;
6941;SDS011;3510;43.200;27.920;2023-03-23T15:03:20;8.77;;;7.88;;
6941;SDS011;3510;43.200;27.920;2023-03-23T15:05:51;21.27;;;15.82;;
6941;SDS011;3510;43.200;27.920;2023-03-23T15:08:24;16.75;;;10.68;;
6941;SDS011;3510;43.200;27.920;2023-03-23T15:10:57;8.35;;;7.57;;
6941;SDS011;3510;43.200;27.920;2023-03-23T15:13:32;6.32;;;5.72;;
6941;SDS011;3510;43.200;27.920;2023-03-23T15:16:01;6.93;;;6.22;;
6941;SDS011;3510;43.200;27.920;2023-03-23T15:18:32;8.15;;;6.32;;
6941;SDS011;3510;43.200;27.920;2023-03-23T15:21:11;6.80;;;6.20;;
6941;SDS011;3510;43.200;27.920;2023-03-23T15:23:47;9.40;;;6.87;;
6941;SDS011;3510;43.200;27.920;2023-03-23T15:26:22;7.30;;;6.70;;
6941;SDS011;3510;43.200;27.920;2023-03-23T15:29:12;7.22;;;6.32;;
6941;SDS011;3510;43.200;27.920;2023-03-23T15:32:01;8.48;;;7.68;;
6941;SDS011;3510;43.200;27.920;2023-03-23T15:37:49;9.63;;;7.32;;
6941;SDS011;3510;43.200;27.920;2023-03-23T15:40:19;7.55;;;6.72;;
6941;SDS011;3510;43.200;27.920;2023-03-23T15:42:48;7.30;;;6.60;;
6941;SDS011;3510;43.200;27.920;2023-03-23T15:45:20;7.70;;;7.00;;
6941;SDS011;3510;43.200;27.920;2023-03-23T15:47:51;7.63;;;6.93;;
6941;SDS011;3510;43.200;27.920;2023-03-23T15:50:18;7.75;;;7.05;;
6941;SDS011;3510;43.200;27.920;2023-03-23T15:52:59;7.57;;;6.72;;
6941;SDS011;3510;43.200;27.920;2023-03-23T15:55:35;7.85;;;7.07;;
6941;SDS011;3510;43.200;27.920;2023-03-23T16:00:43;8.10;;;6.90;;
6941;SDS011;3510;43.200;27.920;2023-03-23T16:03:17;6.77;;;6.10;;
6941;SDS011;3510;43.200;27.920;2023-03-23T16:05:49;5.90;;;5.50;;
6941;SDS011;3510;43.200;27.920;2023-03-23T16:08:17;13.60;;;5.50;;
6941;SDS011;3510;43.200;27.920;2023-03-23T16:10:44;12.47;;;5.30;;
6941;SDS011;3510;43.200;27.920;2023-03-23T16:13:11;7.83;;;5.73;;
6941;SDS011;3510;43.200;27.920;2023-03-23T16:15:38;6.50;;;5.97;;
6941;SDS011;3510;43.200;27.920;2023-03-23T16:18:05;5.40;;;4.97;;
6941;SDS011;3510;43.200;27.920;2023-03-23T16:20:31;7.00;;;6.33;;
6941;SDS011;3510;43.200;27.920;2023-03-23T16:22:58;6.77;;;5.77;;
6941;SDS011;3510;43.200;27.920;2023-03-23T16:25:26;7.30;;;6.57;;
6941;SDS011;3510;43.200;27.920;2023-03-23T16:27:53;7.17;;;6.57;;
6941;SDS011;3510;43.200;27.920;2023-03-23T16:30:21;6.27;;;5.70;;
6941;SDS011;3510;43.200;27.920;2023-03-23T16:32:48;6.17;;;5.67;;
6941;SDS011;3510;43.200;27.920;2023-03-23T16:35:16;6.30;;;5.83;;
6941;SDS011;3510;43.200;27.920;2023-03-23T16:37:43;7.20;;;6.60;;
6941;SDS011;3510;43.200;27.920;2023-03-23T16:40:11;8.40;;;6.93;;
6941;SDS011;3510;43.200;27.920;2023-03-23T16:42:40;7.63;;;6.97;;
6941;SDS011;3510;43.200;27.920;2023-03-23T16:45:07;9.63;;;7.63;;
6941;SDS011;3510;43.200;27.920;2023-03-23T16:47:35;10.57;;;7.93;;
6941;SDS011;3510;43.200;27.920;2023-03-23T16:50:02;10.30;;;7.50;;
6941;SDS011;3510;43.200;27.920;2023-03-23T16:52:30;11.27;;;8.40;;
6941;SDS011;3510;43.200;27.920;2023-03-23T16:54:58;8.87;;;8.13;;
6941;SDS011;3510;43.200;27.920;2023-03-23T16:57:24;10.03;;;7.20;;
6941;SDS011;3510;43.200;27.920;2023-03-23T16:59:54;11.60;;;9.43;;
6941;SDS011;3510;43.200;27.920;2023-03-23T17:02:22;10.90;;;9.73;;
6941;SDS011;3510;43.200;27.920;2023-03-23T17:04:49;12.27;;;8.87;;
6941;SDS011;3510;43.200;27.920;2023-03-23T17:07:28;15.60;;;10.53;;
6941;SDS011;3510;43.200;27.920;2023-03-23T17:09:55;10.10;;;9.10;;
6941;SDS011;3510;43.200;27.920;2023-03-23T17:12:21;8.97;;;8.07;;
6941;SDS011;3510;43.200;27.920;2023-03-23T17:14:48;9.13;;;8.40;;
6941;SDS011;3510;43.200;27.920;2023-03-23T17:17:17;10.23;;;9.23;;
6941;SDS011;3510;43.200;27.920;2023-03-23T17:19:44;14.40;;;9.60;;
6941;SDS011;3510;43.200;27.920;2023-03-23T17:22:11;15.60;;;10.70;;
6941;SDS011;3510;43.200;27.920;2023-03-23T17:24:38;11.83;;;9.83;;
6941;SDS011;3510;43.200;27.920;2023-03-23T17:27:05;10.50;;;9.63;;
6941;SDS011;3510;43.200;27.920;2023-03-23T17:29:31;8.13;;;7.43;;
6941;SDS011;3510;43.200;27.920;2023-03-23T17:31:58;7.93;;;7.17;;
6941;SDS011;3510;43.200;27.920;2023-03-23T17:34:29;8.33;;;7.53;;
6941;SDS011;3510;43.200;27.920;2023-03-23T17:36:55;8.20;;;7.60;;
6941;SDS011;3510;43.200;27.920;2023-03-23T17:39:22;11.57;;;8.33;;
6941;SDS011;3510;43.200;27.920;2023-03-23T17:41:49;11.27;;;10.17;;
6941;SDS011;3510;43.200;27.920;2023-03-23T17:44:16;9.27;;;8.53;;
6941;SDS011;3510;43.200;27.920;2023-03-23T17:46:43;10.30;;;8.80;;
6941;SDS011;3510;43.200;27.920;2023-03-23T17:49:10;9.83;;;8.77;;
6941;SDS011;3510;43.200;27.920;2023-03-23T17:51:38;12.47;;;9.70;;
6941;SDS011;3510;43.200;27.920;2023-03-23T17:54:05;13.57;;;9.17;;
6941;SDS011;3510;43.200;27.920;2023-03-23T17:56:32;9.97;;;9.03;;
6941;SDS011;3510;43.200;27.920;2023-03-23T17:58:59;11.80;;;10.60;;
6941;SDS011;3510;43.200;27.920;2023-03-23T18:01:26;11.77;;;9.30;;
6941;SDS011;3510;43.200;27.920;2023-03-23T18:03:53;11.63;;;9.57;;
6941;SDS011;3510;43.200;27.920;2023-03-23T18:06:20;11.20;;;9.93;;
6941;SDS011;3510;43.200;27.920;2023-03-23T18:08:48;19.10;;;11.30;;
6941;SDS011;3510;43.200;27.920;2023-03-23T18:11:15;12.97;;;10.63;;
6941;SDS011;3510;43.200;27.920;2023-03-23T18:13:42;17.07;;;11.50;;
6941;SDS011;3510;43.200;27.920;2023-03-23T18:16:09;14.07;;;12.57;;
6941;SDS011;3510;43.200;27.920;2023-03-23T18:18:35;18.27;;;12.07;;
6941;SDS011;3510;43.200;27.920;2023-03-23T18:21:03;15.43;;;10.67;;
6941;SDS011;3510;43.200;27.920;2023-03-23T18:23:32;24.80;;;11.90;;
6941;SDS011;3510;43.200;27.920;2023-03-23T18:26:02;24.50;;;13.50;;
6941;SDS011;3510;43.200;27.920;2023-03-23T18:28:31;18.70;;;12.57;;
6941;SDS011;3510;43.200;27.920;2023-03-23T18:31:01;27.03;;;16.43;;
6941;SDS011;3510;43.200;27.920;2023-03-23T18:33:28;22.73;;;14.10;;
6941;SDS011;3510;43.200;27.920;2023-03-23T18:35:56;21.10;;;14.30;;
6941;SDS011;3510;43.200;27.920;2023-03-23T18:38:24;18.33;;;15.00;;
6941;SDS011;3510;43.200;27.920;2023-03-23T18:40:51;17.17;;;14.77;;
6941;SDS011;3510;43.200;27.920;2023-03-23T18:43:19;22.53;;;18.13;;
6941;SDS011;3510;43.200;27.920;2023-03-23T18:45:47;26.57;;;14.80;;
6941;SDS011;3510;43.200;27.920;2023-03-23T18:48:14;35.73;;;19.47;;
6941;SDS011;3510;43.200;27.920;2023-03-23T18:50:44;31.97;;;19.70;;
6941;SDS011;3510;43.200;27.920;2023-03-23T18:53:11;40.47;;;27.57;;
6941;SDS011;3510;43.200;27.920;2023-03-23T18:55:39;40.10;;;23.27;;